Time;durP1;ratioP1;P1;durP2;ratioP2;P2;SDS_P1;SDS_P2;PMS_P1;PMS_P2;Temp;Humidity;BMP_temperature;BMP_pressure;BME280_temperature;BME280_humidity;BME280_pressure;Samples;Min_cycle;Max_cycle;Signal;HPM_P1;HPM_P2
2023/09/28 00:02:26;;;;;;;8.57;6.35;;;18.60;99.90;;;;;;5053805;28;20497;-86
2023/09/28 00:04:52;;;;;;;10.45;6.88;;;18.60;99.90;;;;;;5069370;28;20043;-86
2023/09/28 00:07:18;;;;;;;11.18;7.20;;;18.70;99.90;;;;;;5055220;28;20397;-84
2023/09/28 00:09:44;;;;;;;9.48;6.60;;;18.70;99.90;;;;;;5070964;28;20055;-86
2023/09/28 00:12:09;;;;;;;12.00;6.40;;;18.70;99.90;;;;;;5072354;28;20532;-85
2023/09/28 00:14:35;;;;;;;10.20;6.88;;;18.80;99.90;;;;;;5074038;28;20050;-86
2023/09/28 00:17:02;;;;;;;11.30;6.82;;;18.70;99.90;;;;;;5058558;28;20439;-87
2023/09/28 00:19:29;;;;;;;10.73;6.80;;;18.60;99.90;;;;;;5059185;28;20067;-86
2023/09/28 00:21:55;;;;;;;9.65;6.47;;;18.50;99.90;;;;;;5075503;28;20040;-86
2023/09/28 00:24:21;;;;;;;9.32;6.75;;;18.40;99.90;;;;;;5073685;28;20032;-85
2023/09/28 00:26:47;;;;;;;12.88;6.68;;;18.40;99.90;;;;;;5058807;28;20067;-85
2023/09/28 00:29:13;;;;;;;10.40;7.18;;;18.40;99.90;;;;;;5058928;28;20095;-85
2023/09/28 00:31:38;;;;;;;11.18;7.07;;;18.50;99.90;;;;;;5058586;28;20477;-85
2023/09/28 00:34:04;;;;;;;12.00;7.90;;;18.40;99.90;;;;;;5057035;28;20043;-86
2023/09/28 00:36:30;;;;;;;11.85;7.05;;;18.40;99.90;;;;;;5058649;28;20036;-86
2023/09/28 00:38:55;;;;;;;10.60;7.28;;;18.40;99.90;;;;;;5071976;28;20087;-86
2023/09/28 00:41:21;;;;;;;10.55;7.03;;;18.40;99.90;;;;;;5088235;28;20139;-86
2023/09/28 00:43:47;;;;;;;8.95;6.75;;;18.30;99.90;;;;;;5055650;28;20416;-85
2023/09/28 00:46:16;;;;;;;9.18;6.53;;;18.40;99.90;;;;;;5074322;28;20028;-86
2023/09/28 00:48:58;;;;;;;10.65;6.97;;;18.40;99.90;;;;;;5091994;28;20047;-85
2023/09/28 00:51:26;;;;;;;;;;;18.30;99.90;;;;;;5075362;28;20045;-86
2023/09/28 00:53:52;;;;;;;9.98;6.38;;;18.30;99.90;;;;;;5073420;28;20269;-86
2023/09/28 00:56:19;;;;;;;10.80;6.25;;;18.30;99.90;;;;;;5058194;28;20500;-86
2023/09/28 00:58:50;;;;;;;8.98;6.55;;;18.30;99.90;;;;;;5058212;28;20090;-85
2023/09/28 01:01:15;;;;;;;10.10;6.45;;;18.30;99.90;;;;;;5058129;28;20503;-85
2023/09/28 01:03:41;;;;;;;9.18;5.95;;;18.40;99.90;;;;;;5063556;28;20033;-85
2023/09/28 01:06:08;;;;;;;9.77;6.35;;;18.40;99.90;;;;;;5070372;28;20439;-86
2023/09/28 01:08:33;;;;;;;8.43;5.78;;;18.40;99.90;;;;;;5090662;28;20044;-85
2023/09/28 01:10:59;;;;;;;8.93;6.15;;;18.40;99.90;;;;;;5057577;28;20036;-86
2023/09/28 01:13:27;;;;;;;9.02;6.80;;;18.40;99.90;;;;;;5074003;28;20051;-86
2023/09/28 01:15:52;;;;;;;9.52;6.40;;;18.50;99.90;;;;;;5067606;28;20044;-85
2023/09/28 01:18:20;;;;;;;10.45;6.30;;;18.50;99.90;;;;;;5091346;28;20041;-85
2023/09/28 01:20:48;;;;;;;10.10;6.10;;;18.50;99.90;;;;;;5074493;28;20439;-86
2023/09/28 01:23:14;;;;;;;9.48;5.68;;;18.50;99.90;;;;;;5074276;28;20393;-85
2023/09/28 01:25:40;;;;;;;8.85;5.82;;;18.50;99.90;;;;;;5081627;28;20060;-86
2023/09/28 01:28:07;;;;;;;9.07;5.35;;;18.50;99.90;;;;;;5054350;28;20091;-86
2023/09/28 01:30:34;;;;;;;9.55;6.63;;;18.50;99.90;;;;;;5051788;28;20135;-86
2023/09/28 01:33:00;;;;;;;8.73;6.03;;;18.50;99.90;;;;;;5057471;28;20032;-86
2023/09/28 01:35:27;;;;;;;8.40;5.68;;;18.50;99.90;;;;;;5055715;28;20048;-86
2023/09/28 01:38:20;;;;;;;10.40;6.05;;;18.50;99.90;;;;;;5074153;28;20044;-87
2023/09/28 01:40:46;;;;;;;;;;;18.40;99.90;;;;;;5074537;28;20043;-86
2023/09/28 01:43:12;;;;;;;10.32;5.65;;;18.40;99.90;;;;;;5057456;28;20007;-86
2023/09/28 01:45:38;;;;;;;8.82;5.78;;;18.30;99.90;;;;;;5054821;28;20120;-86
2023/09/28 01:48:04;;;;;;;10.25;5.75;;;18.30;99.90;;;;;;5055368;28;20079;-87
2023/09/28 01:50:33;;;;;;;8.65;5.85;;;18.40;99.90;;;;;;5057333;28;20390;-85
2023/09/28 01:52:59;;;;;;;8.98;5.63;;;18.40;99.90;;;;;;5068044;28;20417;-87
2023/09/28 01:55:25;;;;;;;11.10;6.00;;;18.30;99.90;;;;;;5070525;28;20054;-86
2023/09/28 01:57:50;;;;;;;8.93;5.95;;;18.30;99.90;;;;;;5089561;28;20040;-86
2023/09/28 02:00:18;;;;;;;9.25;5.55;;;18.30;99.90;;;;;;5069491;28;20048;-85
2023/09/28 02:02:45;;;;;;;11.00;5.47;;;18.30;99.90;;;;;;5071426;28;20527;-85
2023/09/28 02:05:14;;;;;;;8.95;5.10;;;18.30;99.90;;;;;;5071730;28;20028;-85
2023/09/28 02:07:40;;;;;;;11.60;5.65;;;18.30;99.90;;;;;;5072036;28;20040;-86
2023/09/28 02:10:06;;;;;;;7.65;5.18;;;18.30;99.90;;;;;;5050666;28;20085;-85
2023/09/28 02:12:32;;;;;;;9.77;5.38;;;18.30;99.90;;;;;;5055708;28;20048;-86
2023/09/28 02:15:03;;;;;;;8.50;5.40;;;18.30;99.90;;;;;;5068276;28;20501;-86
2023/09/28 02:17:29;;;;;;;8.43;5.05;;;18.20;99.90;;;;;;5039323;28;20416;-87
2023/09/28 02:19:55;;;;;;;8.30;5.10;;;18.20;99.90;;;;;;5070514;28;20044;-87
2023/09/28 02:22:21;;;;;;;8.40;4.68;;;18.20;99.90;;;;;;5072756;28;20420;-86
2023/09/28 02:24:47;;;;;;;8.18;4.95;;;18.20;99.90;;;;;;5054783;28;20046;-86
2023/09/28 02:27:13;;;;;;;8.70;5.10;;;18.20;99.90;;;;;;5055855;28;20045;-86
2023/09/28 02:29:39;;;;;;;10.55;5.03;;;18.10;99.90;;;;;;5056051;28;20448;-86
2023/09/28 02:32:04;;;;;;;8.02;5.10;;;18.10;99.90;;;;;;5050680;28;20043;-86
2023/09/28 02:34:33;;;;;;;9.00;4.82;;;18.10;99.90;;;;;;5054977;28;20111;-86
2023/09/28 02:37:01;;;;;;;8.48;4.57;;;18.00;99.90;;;;;;5069420;28;20048;-85
2023/09/28 02:39:28;;;;;;;9.27;5.60;;;18.00;99.90;;;;;;5055744;28;20139;-84
2023/09/28 02:41:55;;;;;;;7.90;4.90;;;18.00;99.90;;;;;;5054430;28;20033;-85
2023/09/28 02:44:21;;;;;;;8.98;4.72;;;18.00;99.90;;;;;;5046008;28;20040;-86
2023/09/28 02:46:48;;;;;;;10.40;5.28;;;18.00;99.90;;;;;;5038277;28;20039;-85
2023/09/28 02:49:13;;;;;;;8.27;4.95;;;18.00;99.90;;;;;;5071847;28;20369;-86
2023/09/28 02:51:39;;;;;;;8.15;5.68;;;18.00;99.90;;;;;;5072668;28;20089;-86
2023/09/28 02:54:05;;;;;;;9.50;5.22;;;17.90;99.90;;;;;;5052627;28;20040;-86
2023/09/28 02:56:31;;;;;;;8.82;4.93;;;17.90;99.90;;;;;;5071675;28;20113;-86
2023/09/28 02:58:57;;;;;;;9.25;5.63;;;17.90;99.90;;;;;;5053877;28;20123;-87
2023/09/28 03:01:24;;;;;;;8.02;4.80;;;17.90;99.90;;;;;;5051639;28;20041;-86
2023/09/28 03:03:50;;;;;;;11.38;5.20;;;17.90;99.90;;;;;;5044368;28;20147;-86
2023/09/28 03:06:15;;;;;;;8.75;5.07;;;17.90;99.90;;;;;;5072417;28;20043;-86
2023/09/28 03:08:41;;;;;;;9.05;5.13;;;17.80;99.90;;;;;;5087506;28;20045;-85
2023/09/28 03:11:07;;;;;;;9.77;5.43;;;17.80;99.90;;;;;;5051479;28;20037;-85
2023/09/28 03:13:32;;;;;;;7.82;5.03;;;17.80;99.90;;;;;;5053212;28;20044;-85
2023/09/28 03:15:58;;;;;;;8.30;5.30;;;17.80;99.90;;;;;;5039843;28;20048;-86
2023/09/28 03:18:24;;;;;;;10.40;5.53;;;17.80;99.90;;;;;;5071502;28;20100;-85
2023/09/28 03:20:49;;;;;;;7.63;5.45;;;17.80;99.90;;;;;;5068695;28;20040;-85
2023/09/28 03:23:15;;;;;;;8.68;5.63;;;17.80;99.90;;;;;;5055319;28;20459;-86
2023/09/28 03:25:42;;;;;;;9.55;5.55;;;17.80;99.90;;;;;;5049687;28;20029;-85
2023/09/28 03:28:08;;;;;;;8.88;5.45;;;17.80;99.90;;;;;;5055316;28;20041;-86
2023/09/28 03:30:34;;;;;;;9.75;5.72;;;17.80;99.90;;;;;;5067371;28;20039;-85
2023/09/28 03:32:59;;;;;;;11.68;5.65;;;17.70;99.90;;;;;;5081354;28;20481;-86
2023/09/28 03:35:26;;;;;;;9.60;5.82;;;17.70;99.90;;;;;;5075015;28;20054;-85
2023/09/28 03:37:57;;;;;;;8.90;5.85;;;17.70;99.90;;;;;;5055476;28;20127;-86
2023/09/28 03:40:23;;;;;;;10.98;6.53;;;17.70;99.90;;;;;;5053912;28;20078;-85
2023/09/28 03:42:49;;;;;;;9.77;6.50;;;17.60;99.90;;;;;;5052781;28;20052;-85
2023/09/28 03:45:20;;;;;;;11.07;6.10;;;17.50;99.90;;;;;;5065386;28;20516;-86
2023/09/28 03:47:49;;;;;;;10.35;6.65;;;17.50;99.90;;;;;;5070075;28;20043;-86
2023/09/28 03:50:15;;;;;;;11.02;6.22;;;17.50;99.90;;;;;;5053081;28;20040;-86
2023/09/28 03:52:42;;;;;;;10.48;6.20;;;17.50;99.90;;;;;;5068987;28;20047;-86
2023/09/28 03:55:13;;;;;;;10.90;6.07;;;17.50;99.90;;;;;;5054807;28;20117;-86
2023/09/28 03:57:39;;;;;;;9.50;6.43;;;17.50;99.90;;;;;;5054004;28;20049;-86
2023/09/28 04:00:06;;;;;;;11.52;6.93;;;17.50;99.90;;;;;;5070110;28;20123;-85
2023/09/28 04:02:32;;;;;;;11.00;6.60;;;17.40;99.90;;;;;;5070920;28;20048;-85
2023/09/28 04:04:58;;;;;;;10.23;6.60;;;17.50;99.90;;;;;;5070296;28;20055;-85
2023/09/28 04:07:24;;;;;;;9.93;7.00;;;17.50;99.90;;;;;;5054141;28;20033;-85
2023/09/28 04:09:50;;;;;;;10.90;6.60;;;17.40;99.90;;;;;;5071983;28;20042;-86
2023/09/28 04:12:16;;;;;;;11.70;6.70;;;17.40;99.90;;;;;;5070900;28;20032;-85
2023/09/28 04:14:42;;;;;;;10.38;6.90;;;17.30;99.90;;;;;;5055081;28;20041;-86
2023/09/28 04:17:08;;;;;;;10.35;6.05;;;17.30;99.90;;;;;;5070698;28;20045;-86
2023/09/28 04:19:34;;;;;;;11.75;6.88;;;17.40;99.90;;;;;;5051067;28;20083;-86
2023/09/28 04:21:59;;;;;;;10.88;6.50;;;17.30;99.90;;;;;;5071607;28;20029;-86
2023/09/28 04:24:25;;;;;;;10.45;6.25;;;17.20;99.90;;;;;;5068823;28;20032;-86
2023/09/28 04:26:51;;;;;;;12.07;6.60;;;17.30;99.90;;;;;;5071796;28;20041;-85
2023/09/28 04:29:17;;;;;;;10.00;6.72;;;17.30;99.90;;;;;;5065339;28;20044;-86
2023/09/28 04:31:43;;;;;;;10.98;6.72;;;17.20;99.90;;;;;;5071514;28;20407;-85
2023/09/28 04:34:12;;;;;;;10.95;6.90;;;17.20;99.90;;;;;;5070466;28;20127;-85
2023/09/28 04:36:38;;;;;;;11.07;6.68;;;17.20;99.90;;;;;;5053961;28;20090;-85
2023/09/28 04:39:05;;;;;;;9.68;6.15;;;17.10;99.90;;;;;;5070201;28;20048;-85
2023/09/28 04:41:31;;;;;;;10.75;6.70;;;17.10;99.90;;;;;;5064578;28;20041;-85
2023/09/28 04:43:58;;;;;;;10.02;6.22;;;17.10;99.90;;;;;;5071223;28;20400;-85
2023/09/28 04:46:24;;;;;;;11.52;6.57;;;17.20;99.90;;;;;;5067430;28;20120;-86
2023/09/28 04:48:49;;;;;;;9.00;6.30;;;17.10;99.90;;;;;;5071638;28;20468;-85
2023/09/28 04:51:15;;;;;;;10.82;6.88;;;17.10;99.90;;;;;;5068255;28;20036;-86
2023/09/28 04:53:41;;;;;;;9.60;6.35;;;17.10;99.90;;;;;;5070154;28;20412;-86
2023/09/28 04:56:12;;;;;;;12.63;6.65;;;17.10;99.90;;;;;;5053678;28;20504;-86
2023/09/28 04:58:38;;;;;;;10.07;6.22;;;17.10;99.90;;;;;;5055493;28;20048;-86
2023/09/28 05:01:06;;;;;;;10.60;5.95;;;17.10;99.90;;;;;;5088846;28;20113;-86
2023/09/28 05:03:31;;;;;;;8.95;5.95;;;17.10;99.90;;;;;;5055748;28;20040;-86
2023/09/28 05:05:58;;;;;;;9.23;6.18;;;17.00;99.90;;;;;;5074797;28;20067;-85
2023/09/28 05:08:23;;;;;;;10.85;5.95;;;17.10;99.90;;;;;;5048991;28;20402;-86
2023/09/28 05:10:50;;;;;;;9.93;6.30;;;17.00;99.90;;;;;;5070995;28;20042;-86
2023/09/28 05:13:15;;;;;;;11.45;6.40;;;16.90;99.90;;;;;;5055418;28;20059;-86
2023/09/28 05:15:41;;;;;;;9.48;6.15;;;16.90;99.90;;;;;;5090154;28;20037;-86
2023/09/28 05:18:07;;;;;;;9.52;6.55;;;16.90;99.90;;;;;;5042096;28;20044;-85
2023/09/28 05:20:32;;;;;;;10.65;6.47;;;17.00;99.90;;;;;;5056876;28;20584;-85
2023/09/28 05:22:58;;;;;;;10.60;6.28;;;16.90;99.90;;;;;;5069390;28;20035;-84
2023/09/28 05:25:24;;;;;;;10.70;6.50;;;16.90;99.90;;;;;;5054618;28;20566;-85
2023/09/28 05:27:49;;;;;;;8.80;6.18;;;16.90;99.90;;;;;;5055601;28;20123;-84
2023/09/28 05:30:15;;;;;;;11.73;6.30;;;16.90;99.90;;;;;;5058199;28;20041;-85
2023/09/28 05:32:41;;;;;;;10.35;6.18;;;16.90;99.90;;;;;;5056598;28;20059;-85
2023/09/28 05:35:07;;;;;;;11.32;5.90;;;16.90;99.90;;;;;;5072837;28;20032;-85
2023/09/28 05:37:32;;;;;;;13.13;5.97;;;16.90;99.90;;;;;;5056897;28;20040;-85
2023/09/28 05:40:02;;;;;;;11.00;6.13;;;16.80;99.90;;;;;;5055447;28;20040;-85
2023/09/28 05:42:27;;;;;;;9.60;6.05;;;16.80;99.90;;;;;;5056364;28;20068;-85
2023/09/28 05:44:53;;;;;;;11.88;5.80;;;16.80;99.90;;;;;;5053886;28;20087;-85
2023/09/28 05:47:20;;;;;;;10.70;5.68;;;16.90;99.90;;;;;;5090253;28;20032;-85
2023/09/28 05:49:46;;;;;;;12.80;5.72;;;16.80;99.90;;;;;;5055331;28;20040;-85
2023/09/28 05:52:12;;;;;;;9.90;5.13;;;16.80;99.90;;;;;;5057048;28;20615;-84
2023/09/28 05:54:38;;;;;;;9.40;4.93;;;16.80;99.90;;;;;;5088780;28;20082;-85
2023/09/28 05:57:04;;;;;;;9.75;4.95;;;16.90;99.90;;;;;;5072492;28;20505;-85
2023/09/28 05:59:29;;;;;;;10.75;5.22;;;16.90;99.90;;;;;;5068312;28;20052;-84
2023/09/28 06:01:55;;;;;;;13.50;5.20;;;16.90;99.90;;;;;;5071255;28;20499;-85
2023/09/28 06:04:21;;;;;;;12.60;4.85;;;16.90;99.90;;;;;;5057687;28;20115;-84
2023/09/28 06:06:50;;;;;;;13.90;4.78;;;16.80;99.90;;;;;;5083074;28;20036;-85
2023/09/28 06:09:19;;;;;;;9.05;5.30;;;16.90;99.90;;;;;;5052735;28;20048;-85
2023/09/28 06:11:45;;;;;;;11.38;5.00;;;16.80;99.90;;;;;;5054256;28;20058;-85
2023/09/28 06:14:13;;;;;;;12.18;5.65;;;16.80;99.90;;;;;;5063029;28;20049;-85
2023/09/28 06:16:40;;;;;;;10.23;5.45;;;16.90;99.90;;;;;;5050979;28;20044;-85
2023/09/28 06:19:06;;;;;;;9.77;5.40;;;16.90;99.90;;;;;;5068926;28;20051;-85
2023/09/28 06:21:32;;;;;;;12.75;5.90;;;16.90;99.90;;;;;;5071509;28;20044;-85
2023/09/28 06:23:58;;;;;;;10.88;5.50;;;16.80;99.90;;;;;;5065887;28;20085;-85
2023/09/28 06:26:24;;;;;;;11.55;5.80;;;16.90;99.90;;;;;;5067869;28;20045;-84
2023/09/28 06:28:49;;;;;;;10.35;5.70;;;16.80;99.90;;;;;;5053520;28;20404;-84
2023/09/28 06:31:18;;;;;;;12.65;6.15;;;16.90;99.90;;;;;;5058116;28;20035;-84
2023/09/28 06:33:47;;;;;;;11.38;5.53;;;16.90;99.90;;;;;;5068927;28;20049;-84
2023/09/28 06:36:13;;;;;;;11.52;5.57;;;16.90;99.90;;;;;;5060853;28;20044;-84
2023/09/28 06:38:39;;;;;;;9.63;5.50;;;16.90;99.90;;;;;;5059506;28;20459;-84
2023/09/28 06:41:04;;;;;;;9.13;5.28;;;16.90;99.90;;;;;;5069337;28;20135;-84
2023/09/28 06:43:30;;;;;;;12.38;5.70;;;16.90;99.90;;;;;;5070213;28;20118;-84
2023/09/28 06:45:58;;;;;;;10.85;5.22;;;16.90;99.90;;;;;;5069173;28;20086;-84
2023/09/28 06:48:24;;;;;;;10.43;4.90;;;17.00;99.90;;;;;;5052117;28;20440;-84
2023/09/28 06:50:50;;;;;;;13.93;5.55;;;17.00;99.90;;;;;;5047427;28;20041;-84
2023/09/28 06:53:16;;;;;;;12.88;5.47;;;17.00;99.90;;;;;;5069054;28;20041;-84
2023/09/28 06:55:44;;;;;;;12.68;4.82;;;17.10;99.90;;;;;;5041257;28;20526;-84
2023/09/28 06:58:13;;;;;;;10.93;4.30;;;17.00;99.90;;;;;;5069491;28;21470;-84
2023/09/28 07:00:39;;;;;;;14.48;4.47;;;17.10;99.90;;;;;;5050535;28;20617;-84
2023/09/28 07:03:05;;;;;;;15.18;4.07;;;17.10;99.90;;;;;;5055359;28;20068;-84
2023/09/28 07:05:33;;;;;;;15.15;4.55;;;17.10;99.90;;;;;;5071585;28;20079;-84
2023/09/28 07:08:00;;;;;;;13.88;4.32;;;17.10;99.90;;;;;;5069607;28;20505;-84
2023/09/28 07:10:26;;;;;;;12.13;3.50;;;17.10;99.90;;;;;;5049799;28;20484;-83
2023/09/28 07:12:51;;;;;;;16.17;4.13;;;17.20;99.90;;;;;;5062973;28;20086;-84
2023/09/28 07:15:17;;;;;;;16.77;3.83;;;17.20;99.90;;;;;;5054154;28;20059;-84
2023/09/28 07:17:43;;;;;;;12.07;3.67;;;17.20;99.90;;;;;;5068492;28;20070;-85
2023/09/28 07:20:09;;;;;;;14.30;3.65;;;17.20;99.90;;;;;;5053655;28;20076;-84
2023/09/28 07:22:35;;;;;;;15.50;3.92;;;17.30;99.90;;;;;;5066490;28;20048;-85
2023/09/28 07:25:01;;;;;;;15.95;4.07;;;17.40;99.90;;;;;;5054509;28;20040;-84
2023/09/28 07:27:32;;;;;;;11.63;3.08;;;17.40;99.90;;;;;;5065272;28;20399;-85
2023/09/28 07:29:59;;;;;;;21.70;4.63;;;17.30;99.90;;;;;;5059182;28;20064;-85
2023/09/28 07:32:26;;;;;;;18.13;3.53;;;17.40;99.90;;;;;;5053679;28;20041;-85
2023/09/28 07:34:52;;;;;;;16.40;3.90;;;17.30;99.90;;;;;;5063610;28;20041;-85
2023/09/28 07:37:18;;;;;;;18.42;3.90;;;17.30;99.90;;;;;;5070482;28;20045;-85
2023/09/28 07:39:44;;;;;;;15.98;4.03;;;17.40;99.90;;;;;;5068365;28;20051;-84
2023/09/28 07:42:10;;;;;;;16.52;3.50;;;17.50;99.90;;;;;;5068680;28;20393;-84
2023/09/28 07:44:35;;;;;;;17.83;3.83;;;17.60;99.90;;;;;;5071115;28;20043;-90
2023/09/28 07:47:01;;;;;;;19.25;4.10;;;17.60;99.90;;;;;;5055442;28;20043;-90
2023/09/28 07:49:27;;;;;;;15.25;2.78;;;17.60;99.90;;;;;;5055856;28;20036;-84
2023/09/28 07:51:55;;;;;;;18.05;3.30;;;17.60;99.90;;;;;;5053489;28;20404;-84
2023/09/28 07:54:20;;;;;;;16.13;3.40;;;17.70;99.90;;;;;;5052640;28;20043;-84
2023/09/28 07:56:46;;;;;;;20.33;3.90;;;17.70;99.90;;;;;;5054861;28;20052;-84
2023/09/28 07:59:12;;;;;;;16.70;3.10;;;17.70;99.90;;;;;;5070099;28;20043;-84
2023/09/28 08:01:38;;;;;;;16.92;3.60;;;17.70;99.90;;;;;;5053447;28;20045;-84
2023/09/28 08:04:04;;;;;;;20.00;3.92;;;17.70;99.90;;;;;;5085527;28;20039;-83
2023/09/28 08:06:30;;;;;;;20.58;4.07;;;17.80;99.90;;;;;;5071257;28;20493;-84
2023/09/28 08:08:56;;;;;;;21.40;4.13;;;17.80;99.90;;;;;;5054655;28;20086;-84
2023/09/28 08:11:22;;;;;;;18.35;3.47;;;17.90;99.90;;;;;;5071347;28;20041;-84
2023/09/28 08:13:47;;;;;;;23.90;3.75;;;17.90;99.90;;;;;;5052698;28;20516;-83
2023/09/28 08:16:13;;;;;;;18.23;3.42;;;18.00;99.90;;;;;;5068525;28;20037;-84
2023/09/28 08:18:39;;;;;;;19.35;2.95;;;18.10;99.90;;;;;;5070590;28;20076;-84
2023/09/28 08:21:04;;;;;;;20.35;4.50;;;18.20;99.90;;;;;;5070903;28;20131;-84
2023/09/28 08:23:33;;;;;;;22.45;4.18;;;18.30;99.90;;;;;;5071790;28;20079;-84
2023/09/28 08:25:59;;;;;;;17.80;3.88;;;18.30;99.90;;;;;;5068819;28;20043;-84
2023/09/28 08:28:24;;;;;;;22.48;3.47;;;18.30;99.90;;;;;;5070285;28;20123;-84
2023/09/28 08:30:53;;;;;;;24.38;3.75;;;18.30;99.90;;;;;;5071372;28;20127;-84
2023/09/28 08:33:19;;;;;;;20.50;3.78;;;18.30;99.90;;;;;;5056749;28;20500;-84
2023/09/28 08:35:49;;;;;;;22.42;3.70;;;18.40;99.90;;;;;;5069401;28;20036;-84
2023/09/28 08:38:16;;;;;;;20.85;3.90;;;18.50;99.90;;;;;;5057195;28;20028;-84
2023/09/28 08:40:42;;;;;;;23.63;3.72;;;18.50;99.90;;;;;;5058066;28;20090;-84
2023/09/28 08:43:11;;;;;;;17.50;3.80;;;18.40;99.90;;;;;;5056156;28;20120;-84
2023/09/28 08:45:39;;;;;;;19.90;3.85;;;18.60;99.90;;;;;;5066706;28;20108;-84
2023/09/28 08:48:06;;;;;;;19.13;3.97;;;18.60;99.90;;;;;;5057346;28;20044;-84
2023/09/28 08:50:37;;;;;;;18.63;3.30;;;18.60;99.90;;;;;;5074289;28;20048;-84
2023/09/28 08:53:05;;;;;;;20.00;3.47;;;18.60;99.90;;;;;;5057594;28;20473;-84
2023/09/28 08:55:33;;;;;;;13.50;2.70;;;18.50;99.90;;;;;;5057956;28;20057;-84
2023/09/28 08:57:59;;;;;;;20.40;3.38;;;18.50;99.90;;;;;;5055396;28;20568;-84
2023/09/28 09:00:26;;;;;;;21.33;4.05;;;18.60;99.90;;;;;;5051666;28;20040;-84
2023/09/28 09:02:52;;;;;;;19.92;4.03;;;18.50;99.90;;;;;;5043987;28;20036;-84
2023/09/28 09:05:18;;;;;;;19.10;3.72;;;18.60;99.90;;;;;;5072007;28;20119;-84
2023/09/28 09:07:44;;;;;;;20.00;3.83;;;18.60;99.90;;;;;;5074675;28;20627;-84
2023/09/28 09:10:17;;;;;;;21.45;3.97;;;18.80;99.90;;;;;;5073199;28;20047;-84
2023/09/28 09:12:42;;;;;;;19.65;4.05;;;18.90;99.90;;;;;;5069345;28;20495;-85
2023/09/28 09:15:09;;;;;;;21.65;3.90;;;19.00;99.90;;;;;;5054689;28;20072;-84
2023/09/28 09:17:35;;;;;;;16.17;3.53;;;19.00;99.90;;;;;;5073184;28;20044;-84
2023/09/28 09:20:05;;;;;;;22.88;6.03;;;18.90;99.90;;;;;;5048354;28;20037;-85
2023/09/28 09:22:30;;;;;;;23.48;5.35;;;18.90;99.90;;;;;;5056695;28;20469;-84
2023/09/28 09:24:57;;;;;;;20.65;3.25;;;18.90;99.90;;;;;;5075829;28;20132;-84
2023/09/28 09:27:32;;;;;;;18.50;3.47;;;19.00;99.90;;;;;;5071569;28;20059;-84
2023/09/28 09:29:58;;;;;;;21.88;3.45;;;19.00;99.90;;;;;;5057284;28;20086;-84
2023/09/28 09:32:27;;;;;;;16.17;3.47;;;18.90;99.90;;;;;;5071567;28;20562;-84
2023/09/28 09:34:54;;;;;;;16.20;3.42;;;19.00;99.90;;;;;;5056366;28;20164;-84
2023/09/28 09:37:19;;;;;;;18.50;3.13;;;19.00;99.90;;;;;;5063036;28;20036;-84
2023/09/28 09:39:45;;;;;;;16.15;3.00;;;19.00;99.90;;;;;;5072572;28;20047;-85
2023/09/28 09:42:11;;;;;;;20.63;3.47;;;19.10;99.90;;;;;;5072773;28;20028;-85
2023/09/28 09:44:37;;;;;;;18.95;3.53;;;19.00;99.90;;;;;;5071447;28;20044;-85
2023/09/28 09:47:03;;;;;;;22.17;3.63;;;19.10;99.90;;;;;;5070862;28;20067;-85
2023/09/28 09:49:30;;;;;;;23.38;3.63;;;19.00;99.90;;;;;;5055289;28;20083;-84
2023/09/28 09:51:59;;;;;;;18.83;3.17;;;19.00;99.90;;;;;;5055533;28;20044;-85
2023/09/28 09:54:24;;;;;;;16.55;3.67;;;18.90;99.90;;;;;;5068110;28;20043;-85
2023/09/28 09:56:51;;;;;;;17.20;3.25;;;19.00;99.90;;;;;;5039226;28;20155;-85
2023/09/28 09:59:19;;;;;;;19.58;3.75;;;18.90;99.90;;;;;;5056010;28;20396;-85
2023/09/28 10:01:48;;;;;;;15.43;3.30;;;18.90;99.90;;;;;;5072442;28;20048;-85
2023/09/28 10:04:18;;;;;;;16.27;3.35;;;18.90;99.90;;;;;;5060214;28;20068;-85
2023/09/28 10:06:52;;;;;;;14.32;3.20;;;18.90;99.90;;;;;;5055060;28;20086;-85
2023/09/28 10:09:22;;;;;;;23.55;4.30;;;19.00;99.90;;;;;;5075925;28;20065;-85
2023/09/28 10:11:49;;;;;;;16.67;3.55;;;19.00;99.90;;;;;;5041708;28;20523;-85
2023/09/28 10:14:21;;;;;;;19.42;4.10;;;18.90;99.90;;;;;;5053325;28;20039;-85
2023/09/28 10:16:53;;;;;;;20.05;3.38;;;18.80;99.90;;;;;;5059420;28;20094;-85
2023/09/28 10:19:21;;;;;;;18.33;3.13;;;18.90;99.90;;;;;;5062453;28;20053;-85
2023/09/28 10:21:47;;;;;;;21.08;3.70;;;18.80;99.90;;;;;;5071836;28;20478;-85
2023/09/28 10:24:15;;;;;;;18.60;3.47;;;18.90;99.90;;;;;;5055260;28;20029;-85
2023/09/28 10:26:51;;;;;;;17.52;3.38;;;18.90;99.90;;;;;;5054538;28;20058;-85
2023/09/28 10:29:23;;;;;;;15.20;3.30;;;18.90;99.90;;;;;;5065420;28;20060;-85
2023/09/28 10:31:51;;;;;;;17.38;3.53;;;18.90;99.90;;;;;;5072355;28;20093;-85
2023/09/28 10:34:21;;;;;;;18.73;3.65;;;18.80;99.90;;;;;;5061466;28;20117;-85
2023/09/28 10:37:08;;;;;;;15.32;3.90;;;18.70;99.90;;;;;;5053234;28;20036;-85
2023/09/28 10:39:33;;;;;;;16.38;3.13;;;18.70;99.90;;;;;;5063002;28;20123;-85
2023/09/28 10:42:14;;;;;;;17.48;3.28;;;18.70;99.90;;;;;;5066955;28;20583;-85
2023/09/28 10:44:55;;;;;;;16.17;3.38;;;18.80;99.90;;;;;;5067954;28;20075;-85
2023/09/28 10:47:21;;;;;;;18.13;4.15;;;18.70;99.90;;;;;;5069595;28;20040;-85
2023/09/28 10:49:53;;;;;;;18.35;4.05;;;18.70;99.90;;;;;;5053965;28;20102;-86
2023/09/28 10:52:23;;;;;;;18.13;3.47;;;18.70;99.90;;;;;;5063523;28;20049;-86
2023/09/28 10:54:48;;;;;;;20.83;3.92;;;18.80;99.90;;;;;;5069156;28;20501;-86
2023/09/28 10:57:14;;;;;;;20.67;3.75;;;18.80;99.90;;;;;;5071459;28;20110;-85
2023/09/28 10:59:41;;;;;;;17.05;2.83;;;18.70;99.90;;;;;;5054543;28;20094;-86
2023/09/28 11:02:08;;;;;;;17.48;3.88;;;18.80;99.90;;;;;;5045732;28;20041;-85
2023/09/28 11:04:38;;;;;;;16.58;2.90;;;18.70;99.90;;;;;;5055486;28;20131;-86
2023/09/28 11:07:05;;;;;;;16.35;3.22;;;18.70;99.90;;;;;;5055695;28;20054;-86
2023/09/28 11:09:31;;;;;;;19.33;4.10;;;18.60;99.90;;;;;;5070648;28;20039;-86
2023/09/28 11:11:57;;;;;;;16.55;3.30;;;18.70;99.90;;;;;;5071145;28;20044;-86
2023/09/28 11:14:26;;;;;;;21.15;3.28;;;18.80;99.90;;;;;;5049329;28;20032;-86
2023/09/28 11:16:52;;;;;;;19.02;3.58;;;18.70;99.90;;;;;;5055231;28;20037;-86
2023/09/28 11:19:19;;;;;;;20.95;3.53;;;18.60;99.90;;;;;;5051813;28;20041;-85
2023/09/28 11:21:45;;;;;;;17.85;3.50;;;18.70;99.90;;;;;;5055255;28;20041;-87
2023/09/28 11:24:13;;;;;;;15.82;3.35;;;18.70;99.90;;;;;;5070279;28;20044;-86
2023/09/28 11:26:39;;;;;;;17.25;3.50;;;18.80;99.90;;;;;;5072190;28;20041;-86
2023/09/28 11:29:05;;;;;;;15.07;3.03;;;18.80;99.90;;;;;;5087924;28;20048;-85
2023/09/28 11:31:35;;;;;;;15.50;3.50;;;18.70;99.90;;;;;;5055460;28;20076;-86
2023/09/28 11:34:05;;;;;;;16.27;3.08;;;18.80;99.90;;;;;;5054612;28;20040;-86
2023/09/28 11:36:31;;;;;;;19.02;3.72;;;18.70;99.90;;;;;;5067493;28;20384;-86
2023/09/28 11:38:57;;;;;;;17.77;3.55;;;18.70;99.90;;;;;;5054065;28;20047;-86
2023/09/28 11:41:23;;;;;;;18.10;3.53;;;18.70;99.90;;;;;;5065462;28;20501;-85
2023/09/28 11:43:52;;;;;;;16.63;2.97;;;18.70;99.90;;;;;;5068017;28;20132;-86
2023/09/28 11:46:22;;;;;;;18.42;3.72;;;18.80;99.90;;;;;;5064551;28;20400;-86
2023/09/28 11:49:04;;;;;;;14.25;2.90;;;18.80;99.90;;;;;;5086827;28;20491;-86
2023/09/28 11:51:34;;;;;;;13.93;2.95;;;18.90;99.90;;;;;;5069543;28;20075;-86
2023/09/28 11:54:05;;;;;;;20.40;3.20;;;18.90;99.90;;;;;;5069692;28;20040;-86
2023/09/28 11:56:31;;;;;;;19.77;3.53;;;18.90;99.90;;;;;;5070244;28;20060;-86
2023/09/28 11:58:57;;;;;;;17.63;3.30;;;19.00;99.90;;;;;;5054067;28;20044;-85
2023/09/28 12:01:23;;;;;;;17.17;3.17;;;18.90;99.90;;;;;;5053245;28;20039;-85
2023/09/28 12:03:49;;;;;;;18.40;3.25;;;19.00;99.90;;;;;;5053313;28;20126;-86
2023/09/28 12:06:17;;;;;;;22.55;3.72;;;18.90;99.90;;;;;;5069614;28;20121;-86
2023/09/28 12:08:43;;;;;;;16.65;4.13;;;18.90;99.90;;;;;;5058553;28;20057;-86
2023/09/28 12:11:09;;;;;;;21.98;4.57;;;18.80;99.90;;;;;;5057427;28;20095;-86
2023/09/28 12:13:36;;;;;;;16.20;3.17;;;19.10;99.90;;;;;;5057977;28;20072;-86
2023/09/28 12:16:02;;;;;;;19.73;3.88;;;18.90;99.90;;;;;;5056626;28;20041;-86
2023/09/28 12:18:29;;;;;;;22.10;3.55;;;18.90;99.90;;;;;;5064919;28;20043;-86
2023/09/28 12:20:54;;;;;;;19.23;3.45;;;18.90;99.90;;;;;;5074858;28;20094;-86
2023/09/28 12:23:20;;;;;;;17.45;3.90;;;18.90;99.90;;;;;;5058677;28;20473;-86
2023/09/28 12:25:45;;;;;;;19.80;3.50;;;18.90;99.90;;;;;;5048689;28;20114;-86
2023/09/28 12:28:11;;;;;;;18.60;3.45;;;18.90;99.90;;;;;;5068979;28;20036;-85
2023/09/28 12:30:37;;;;;;;22.30;4.07;;;19.00;99.90;;;;;;5058534;28;20577;-86
2023/09/28 12:33:02;;;;;;;15.40;3.35;;;19.00;99.90;;;;;;5065399;28;20488;-86
2023/09/28 12:35:28;;;;;;;14.90;2.92;;;18.90;99.90;;;;;;5073145;28;20097;-86
2023/09/28 12:37:54;;;;;;;16.95;3.67;;;18.90;99.90;;;;;;5071362;28;20485;-85
2023/09/28 12:40:20;;;;;;;19.27;3.75;;;18.80;99.90;;;;;;5073084;28;20036;-85